5PS2 weather

Paoli Memorial Hospital Heliport
Paoli, Pennsylvania, United States

Public forecast

Using degrees Fahrenheit for public forecast. Weather courtesy of forecast.io.

Closest aviation weather report (METAR) to Paoli Memorial Hospital Heliport

Closest report is Brandywine Regional Airport, 5.0 nm (9.2 km) SW. Retrieved 2020/04/08 23:35 UTC (14 minutes ago):

KOQN 082335Z AUTO 04005KT 10SM CLR 17/09 A2962 RMK AO2

Closest aviation forecast (TAF) to Paoli Memorial Hospital Heliport

Closest forecast is Philadelphia International Airport, 15.8 nm (29.2 km) SE. Retrieved 2020/04/08 18:36 UTC (5 hours ago):

TAF KPHL 081730Z 0818/0924 31010G17KT P6SM FEW050 FM090000 VRB03KT P6SM FEW200 FM090800 VRB03KT 3SM BR SCT005 FM091200 19009KT P6SM VCSH BKN040 FM091600 26016G33KT 4SM SHRA OVC025 FM091900 30018G38KT P6SM BKN050